EDLI 250438Z VRB01KT 5000 ///014 02/02 Q1033

Wind aktuell: 270° mit 1 kt

Wind 10 Minuten extrem:

200° bis 340° mit 1 kt bis 1 kt

Seitenwindkomponente: 0.2 kt

Wolkengrenze 1: 1300

Wolkengrenze 2: keine

Wolkengrenze 3: keine

Sichtweite: 4.800 Meter

Vorheriges Wetter:

Aktuelles Wetter:

Temperatur: 2.4 °C

Taupunkt: 2.0 °C

Luftfeuchtigkeit: 97%

QNH: 1033 hPa 

QFE: 1016 hPa

Diese Daten werden automatisch ermittelt bzw. übertragen und sind nicht geprüft. Für die Richtigkeit wird daher keine Gewähr übernommen. Sie ersetzen im übrigen nicht die Flugwetterberatung. Alle Zeitangaben beziehen sich auf UTC. Die Seite wird einmal die Minute aktualisiert! Sollten Sie ein ältere Seite haben, so drücken Sie bitte auf den Reload Button Ihres Browsers!